Airfield :
LOGIN :

Register | Disclaimer

   EN    FR    IT 

 










Legend :    VFR   Marginal VFR   IFR   Intensive IFR   Very Intensive IFR
Visi :
Ceiling :
>= 8 km
>= 3000ft
5 to 8 km
1000 to 3000 ft
1500m to 5 km
500 to 1000 ft
800 to 1500m
200 to 500 ft
< 800m
< 200 ft
Symbols :   Thunderstorms  Fog  Heavy snow  Heavy precipitations  Wind > 20 kt
SIGMETs :     Misc.  Thunderstorms  Icing  Turbulence  Mountain Waves  Volcanic Ashes







- Airport Elevation : 124 ft
- IATA code : RNS
- Download approach charts


LFRN - Rennes

CURRENT METAR :
  • 200730Z AUTO 28007KT 9999 SCT014 15/12 Q1016 NOSIG

EXPIRED METARs :
  • 200700Z AUTO 29005KT 250V320 9999 FEW011 14/12 Q1016 NOSIG
  • 200630Z AUTO 27006KT 9999 FEW009 13/11 Q1016 NOSIG
  • 200600Z AUTO 27005KT CAVOK 12/11 Q1016 TEMPO BKN013
  • 200530Z AUTO 24004KT CAVOK 12/11 Q1016 TEMPO BKN013
  • 200500Z AUTO 22004KT 9999 FEW019 11/11 Q1016 TEMPO BKN010

TAF TAF LFRN
Valid from the 20 at 06:00 until the 21 at 06:00 UTC


200500Z 2006/2106 30005KT 9999 BKN020
TEMPO 2006/2007 BKN013
PROB40
TEMPO 2010/2019 4000 SHRA BKN030TCU
BECMG 2015/2018 36008KT
BECMG 2100/2103 3000 BR
TEMPO 2103/2106 0500 FG VV///
ATIS : +33 2 99 67 72 50
No reported NOTAMs for that airfield.



MET'MAP, your aeronautical weather chart ! - Copyright ORBIFLY December 2007 - Disclaimer

ORBIFLY MET'MAP TEAM :

Programming & Development : Alexandra Zaïnal
Concept & Development : Baudouin d'Aumeries
Co-Development & Prog : Marc-Olivier Méhu
Technical & hardware support : Manuel Goepfert

Contact : metmap@orbifly.com




SOURCES & CREDITS :

   NOAA